Time;durP1;ratioP1;P1;durP2;ratioP2;P2;SDS_P1;SDS_P2;PMS_P1;PMS_P2;Temp;Humidity;BMP_temperature;BMP_pressure;BME280_temperature;BME280_humidity;BME280_pressure;Samples;Min_cycle;Max_cycle;Signal;HPM_P1;HPM_P2
2023/03/27 00:02:25;;;;;;;1999.90;999.90;;;;;;;;;;4921481;29;20613;-75
2023/03/27 00:05:10;;;;;;;1999.90;999.90;;;;;;;;;;4916649;29;20718;-75
2023/03/27 00:07:55;;;;;;;1999.90;999.90;;;;;;;;;;4923948;29;20623;-75
2023/03/27 00:10:40;;;;;;;1999.90;999.90;;;;;;;;;;4921614;29;20630;-75
2023/03/27 00:13:27;;;;;;;1999.90;999.90;;;;;;;;;;4918346;29;20225;-75
2023/03/27 00:16:12;;;;;;;1999.90;999.90;;;;;;;;;;4919928;29;20107;-75
2023/03/27 00:18:57;;;;;;;1999.90;999.90;;;;;;;;;;4914218;29;20221;-75
2023/03/27 00:21:43;;;;;;;1999.90;999.90;;;;;;;;;;4915918;29;20436;-75
2023/03/27 00:24:28;;;;;;;1999.90;999.90;;;;;;;;;;4915500;29;20686;-75
2023/03/27 00:27:13;;;;;;;1999.90;999.90;;;;;;;;;;4924370;29;20916;-75
2023/03/27 00:29:59;;;;;;;1999.90;999.90;;;;;;;;;;4914704;29;20432;-75
2023/03/27 00:32:44;;;;;;;1999.90;999.90;;;;;;;;;;4920362;29;20276;-75
2023/03/27 00:35:30;;;;;;;1999.90;999.90;;;;;;;;;;4923949;29;20217;-75
2023/03/27 00:38:15;;;;;;;1999.90;999.90;;;;;;;;;;4915428;29;20214;-75
2023/03/27 00:41:01;;;;;;;1999.90;999.90;;;;;;;;;;4923885;29;20225;-75
2023/03/27 00:43:48;;;;;;;1999.90;999.90;;;;;;;;;;4914997;29;20586;-75
2023/03/27 00:46:38;;;;;;;1999.90;999.90;;;;;;;;;;4924104;29;20301;-75
2023/03/27 00:49:23;;;;;;;1999.90;999.90;;;;;;;;;;4915999;29;20266;-75
2023/03/27 00:52:09;;;;;;;1999.90;999.90;;;;;;;;;;4919167;29;20253;-75
2023/03/27 00:54:55;;;;;;;1999.90;999.90;;;;;;;;;;4918885;29;20686;-75
2023/03/27 00:57:42;;;;;;;1999.90;999.90;;;;;;;;;;4914792;29;20205;-74
2023/03/27 01:00:27;;;;;;;1999.90;999.90;;;;;;;;;;4923494;29;20244;-75
2023/03/27 01:03:13;;;;;;;1999.90;999.90;;;;;;;;;;4915155;29;20202;-75
2023/03/27 01:06:01;;;;;;;1999.90;999.90;;;;;;;;;;4917776;29;20344;-74
2023/03/27 01:08:47;;;;;;;1999.90;999.90;;;;;;;;;;4914941;29;20359;-75
2023/03/27 01:11:37;;;;;;;1999.90;999.90;;;;;;;;;;4923485;29;20233;-75
2023/03/27 01:14:26;;;;;;;1999.90;999.90;;;;;;;;;;4914397;29;20440;-75
2023/03/27 01:17:16;;;;;;;1999.90;999.90;;;;;;;;;;4918992;29;20206;-75
2023/03/27 01:20:16;;;;;;;1999.90;999.90;;;;;;;;;;4918046;29;20285;-75
2023/03/27 01:23:24;;;;;;;1999.90;999.90;;;;;;;;;;4925541;29;20594;-75
2023/03/27 01:26:23;;;;;;;1999.90;999.90;;;;;;;;;;4910713;29;20309;-74
2023/03/27 01:29:10;;;;;;;1999.90;999.90;;;;;;;;;;4911668;29;20831;-75
2023/03/27 01:32:05;;;;;;;1999.90;999.90;;;;;;;;;;4916867;29;20270;-75
2023/03/27 01:34:56;;;;;;;1999.90;999.90;;;;;;;;;;4922366;29;20225;-74
2023/03/27 01:37:56;;;;;;;1999.90;999.90;;;;;;;;;;4920352;29;20302;-74
2023/03/27 01:40:43;;;;;;;1999.90;999.90;;;;;;;;;;4927849;29;20233;-75
2023/03/27 01:43:32;;;;;;;1999.90;999.90;;;;;;;;;;4927731;29;20214;-75
2023/03/27 01:46:21;;;;;;;1999.90;999.90;;;;;;;;;;4923969;29;20427;-75
2023/03/27 01:49:10;;;;;;;1999.90;999.90;;;;;;;;;;4920322;29;20222;-75
2023/03/27 01:51:56;;;;;;;1999.90;999.90;;;;;;;;;;4902429;29;20246;-74
2023/03/27 01:54:42;;;;;;;1999.90;999.90;;;;;;;;;;4923783;29;20252;-75
2023/03/27 01:57:33;;;;;;;1999.90;999.90;;;;;;;;;;4922621;29;20453;-75
2023/03/27 02:00:20;;;;;;;1999.90;999.90;;;;;;;;;;4919668;29;20254;-75
2023/03/27 02:03:08;;;;;;;1999.90;999.90;;;;;;;;;;4925804;29;20220;-75
2023/03/27 02:05:55;;;;;;;1999.90;999.90;;;;;;;;;;4918393;29;20234;-75
2023/03/27 02:08:44;;;;;;;1999.90;999.90;;;;;;;;;;4927560;29;20218;-74
2023/03/27 02:11:30;;;;;;;1999.90;999.90;;;;;;;;;;4927963;29;20233;-72
2023/03/27 02:14:18;;;;;;;1999.90;999.90;;;;;;;;;;4936061;29;20729;-74
2023/03/27 02:17:08;;;;;;;1999.90;999.90;;;;;;;;;;4902762;29;20215;-73
2023/03/27 02:19:56;;;;;;;1999.90;999.90;;;;;;;;;;4921572;29;20349;-73
2023/03/27 02:22:41;;;;;;;1999.90;999.90;;;;;;;;;;4922373;29;20213;-73
2023/03/27 02:25:28;;;;;;;1999.90;999.90;;;;;;;;;;4926397;29;20698;-72
2023/03/27 02:28:34;;;;;;;1999.90;999.90;;;;;;;;;;4920588;29;20266;-73
2023/03/27 02:31:29;;;;;;;1999.90;999.90;;;;;;;;;;4924906;29;20471;-72
2023/03/27 02:34:32;;;;;;;1999.90;999.90;;;;;;;;;;4920341;29;20489;-74
2023/03/27 02:37:20;;;;;;;1999.90;999.90;;;;;;;;;;4932489;29;20241;-73
2023/03/27 02:40:12;;;;;;;1999.90;999.90;;;;;;;;;;4923690;29;20738;-73
2023/03/27 02:43:01;;;;;;;1999.90;999.90;;;;;;;;;;4905993;29;20584;-73
2023/03/27 02:45:50;;;;;;;1999.90;999.90;;;;;;;;;;4927104;29;20469;-73
2023/03/27 02:48:39;;;;;;;1999.90;999.90;;;;;;;;;;4933725;29;20222;-73
2023/03/27 02:51:26;;;;;;;1999.90;999.90;;;;;;;;;;4933925;29;20658;-73
2023/03/27 02:54:12;;;;;;;1999.90;999.90;;;;;;;;;;4927847;29;20738;-73
2023/03/27 02:57:00;;;;;;;1999.90;999.90;;;;;;;;;;4899449;29;20238;-73
2023/03/27 02:59:49;;;;;;;1999.90;999.90;;;;;;;;;;4928232;29;20316;-73
2023/03/27 03:02:36;;;;;;;1999.90;999.90;;;;;;;;;;4931367;29;20218;-73
2023/03/27 03:05:23;;;;;;;1999.90;999.90;;;;;;;;;;4933414;29;20265;-72
2023/03/27 03:08:09;;;;;;;1999.90;999.90;;;;;;;;;;4925685;29;20218;-73
2023/03/27 03:10:59;;;;;;;1999.90;999.90;;;;;;;;;;4921867;29;20362;-73
2023/03/27 03:13:44;;;;;;;1999.90;999.90;;;;;;;;;;4922492;29;20225;-73
2023/03/27 03:16:29;;;;;;;1999.90;999.90;;;;;;;;;;4920219;29;20515;-73
2023/03/27 03:19:14;;;;;;;1999.90;999.90;;;;;;;;;;4921094;29;20198;-73
2023/03/27 03:22:00;;;;;;;1999.90;999.90;;;;;;;;;;4916391;29;20253;-73
2023/03/27 03:24:45;;;;;;;1999.90;999.90;;;;;;;;;;4927908;29;20210;-72
2023/03/27 03:27:32;;;;;;;1999.90;999.90;;;;;;;;;;4927951;29;20217;-71
2023/03/27 03:30:18;;;;;;;1999.90;999.90;;;;;;;;;;4928498;29;20213;-73
2023/03/27 03:33:03;;;;;;;1999.90;999.90;;;;;;;;;;4921788;29;20214;-73
2023/03/27 03:35:48;;;;;;;1999.90;999.90;;;;;;;;;;4924475;29;20218;-72
2023/03/27 03:38:35;;;;;;;1999.90;999.90;;;;;;;;;;4916357;29;20218;-73
2023/03/27 03:41:20;;;;;;;1999.90;999.90;;;;;;;;;;4929342;29;20253;-73
2023/03/27 03:44:05;;;;;;;1999.90;999.90;;;;;;;;;;4919052;29;20206;-72
2023/03/27 03:46:50;;;;;;;1999.90;999.90;;;;;;;;;;4915564;29;20221;-73
2023/03/27 03:49:35;;;;;;;1999.90;999.90;;;;;;;;;;4930831;29;20800;-72
2023/03/27 03:52:20;;;;;;;1999.90;999.90;;;;;;;;;;4915796;29;20245;-71
2023/03/27 03:55:07;;;;;;;1999.90;999.90;;;;;;;;;;4923632;29;20232;-73
2023/03/27 03:57:52;;;;;;;1999.90;999.90;;;;;;;;;;4924445;29;20213;-73
2023/03/27 04:00:38;;;;;;;1999.90;999.90;;;;;;;;;;4935925;29;20338;-73
2023/03/27 04:03:25;;;;;;;1999.90;999.90;;;;;;;;;;4915719;29;20463;-73
2023/03/27 04:06:11;;;;;;;1999.90;999.90;;;;;;;;;;4897885;29;20790;-72
2023/03/27 04:08:55;;;;;;;1999.90;999.90;;;;;;;;;;4905161;29;20206;-73
2023/03/27 04:11:41;;;;;;;1999.90;999.90;;;;;;;;;;4930024;29;20309;-72
2023/03/27 04:14:26;;;;;;;1999.90;999.90;;;;;;;;;;4924528;29;20233;-72
2023/03/27 04:17:11;;;;;;;1999.90;999.90;;;;;;;;;;4914423;29;20447;-72
2023/03/27 04:19:57;;;;;;;1999.90;999.90;;;;;;;;;;4928145;29;20217;-73
2023/03/27 04:22:45;;;;;;;1999.90;999.90;;;;;;;;;;4927995;29;20265;-73
2023/03/27 04:25:30;;;;;;;1999.90;999.90;;;;;;;;;;4927368;29;20390;-70
2023/03/27 04:28:17;;;;;;;1999.90;999.90;;;;;;;;;;4908260;29;20214;-72
2023/03/27 04:31:05;;;;;;;1999.90;999.90;;;;;;;;;;4909806;29;20230;-73
2023/03/27 04:33:51;;;;;;;1999.90;999.90;;;;;;;;;;4912190;29;20559;-73
2023/03/27 04:36:36;;;;;;;1999.90;999.90;;;;;;;;;;4904011;29;20699;-72
2023/03/27 04:39:21;;;;;;;1999.90;999.90;;;;;;;;;;4915593;29;20347;-73
2023/03/27 04:42:06;;;;;;;1999.90;999.90;;;;;;;;;;4909429;29;20245;-72
2023/03/27 04:44:53;;;;;;;1999.90;999.90;;;;;;;;;;4909017;29;20694;-72
2023/03/27 04:47:38;;;;;;;1999.90;999.90;;;;;;;;;;4913259;29;20217;-71
2023/03/27 04:50:23;;;;;;;1999.90;999.90;;;;;;;;;;4915032;29;20318;-71
2023/03/27 04:53:09;;;;;;;1999.90;999.90;;;;;;;;;;4918917;29;20579;-68
2023/03/27 04:55:56;;;;;;;1999.90;999.90;;;;;;;;;;4913524;29;20237;-69
2023/03/27 04:58:44;;;;;;;1999.90;999.90;;;;;;;;;;4914597;29;20221;-69
2023/03/27 05:01:31;;;;;;;1999.90;999.90;;;;;;;;;;4909092;29;20317;-68
2023/03/27 05:04:16;;;;;;;1999.90;999.90;;;;;;;;;;4906167;29;20226;-73
2023/03/27 05:07:04;;;;;;;1999.90;999.90;;;;;;;;;;4908129;29;20339;-72
2023/03/27 05:09:49;;;;;;;1999.90;999.90;;;;;;;;;;4918330;29;20206;-72
2023/03/27 05:12:34;;;;;;;1999.90;999.90;;;;;;;;;;4912759;29;20214;-72
2023/03/27 05:15:20;;;;;;;1999.90;999.90;;;;;;;;;;4921582;29;20222;-72
2023/03/27 05:18:07;;;;;;;1999.90;999.90;;;;;;;;;;4901981;29;20213;-71
2023/03/27 05:20:53;;;;;;;1999.90;999.90;;;;;;;;;;4913525;29;20603;-72
2023/03/27 05:23:38;;;;;;;1999.90;999.90;;;;;;;;;;4908937;29;20277;-73
2023/03/27 05:26:23;;;;;;;1999.90;999.90;;;;;;;;;;4915048;29;20213;-70
2023/03/27 05:29:08;;;;;;;1999.90;999.90;;;;;;;;;;4904906;29;20699;-72
2023/03/27 05:31:54;;;;;;;1999.90;999.90;;;;;;;;;;4908153;29;20605;-73
2023/03/27 05:34:41;;;;;;;1999.90;999.90;;;;;;;;;;4904631;29;20226;-73
2023/03/27 05:37:26;;;;;;;1999.90;999.90;;;;;;;;;;4908905;29;20217;-71
2023/03/27 05:40:12;;;;;;;1999.90;999.90;;;;;;;;;;4908944;29;20235;-72
2023/03/27 05:42:57;;;;;;;1999.90;999.90;;;;;;;;;;4913068;29;20353;-72
2023/03/27 05:45:43;;;;;;;1999.90;999.90;;;;;;;;;;4912795;29;20221;-72
2023/03/27 05:48:28;;;;;;;1999.90;999.90;;;;;;;;;;4914569;29;20719;-72
2023/03/27 05:51:15;;;;;;;1999.90;999.90;;;;;;;;;;4901949;29;20420;-73
2023/03/27 05:54:00;;;;;;;1999.90;999.90;;;;;;;;;;4906952;29;20214;-73
2023/03/27 05:56:45;;;;;;;1999.90;999.90;;;;;;;;;;4913112;29;20220;-72
2023/03/27 05:59:30;;;;;;;1999.90;999.90;;;;;;;;;;4912043;29;20213;-73
2023/03/27 06:02:17;;;;;;;1999.90;999.90;;;;;;;;;;4908027;29;20229;-72
2023/03/27 06:05:03;;;;;;;1999.90;999.90;;;;;;;;;;4907671;29;20254;-73
2023/03/27 06:07:49;;;;;;;1999.90;999.90;;;;;;;;;;4915064;29;20322;-73
2023/03/27 06:10:34;;;;;;;1999.90;999.90;;;;;;;;;;4905063;29;20313;-73
2023/03/27 06:13:20;;;;;;;1999.90;999.90;;;;;;;;;;4905532;29;20711;-69
2023/03/27 06:16:06;;;;;;;1999.90;999.90;;;;;;;;;;4909281;29;20225;-70
2023/03/27 06:18:51;;;;;;;1999.90;999.90;;;;;;;;;;4914103;29;20266;-69
2023/03/27 06:21:36;;;;;;;1999.90;999.90;;;;;;;;;;4910210;29;20228;-72
2023/03/27 06:24:23;;;;;;;1999.90;999.90;;;;;;;;;;4916848;29;20946;-70
2023/03/27 06:27:08;;;;;;;1999.90;999.90;;;;;;;;;;4915389;29;20213;-69
2023/03/27 06:29:53;;;;;;;1999.90;999.90;;;;;;;;;;4914123;29;20217;-73
2023/03/27 06:32:42;;;;;;;1999.90;999.90;;;;;;;;;;4917447;29;20301;-72
2023/03/27 06:35:28;;;;;;;1999.90;999.90;;;;;;;;;;4917895;29;20355;-69
2023/03/27 06:38:15;;;;;;;1999.90;999.90;;;;;;;;;;4907458;29;20415;-73
2023/03/27 06:41:03;;;;;;;1999.90;999.90;;;;;;;;;;4908072;29;20789;-72
2023/03/27 06:43:48;;;;;;;1999.90;999.90;;;;;;;;;;4911973;29;20224;-69
2023/03/27 06:46:33;;;;;;;1999.90;999.90;;;;;;;;;;4917645;29;20296;-72
2023/03/27 06:49:18;;;;;;;1999.90;999.90;;;;;;;;;;4913451;29;20256;-71
2023/03/27 06:52:03;;;;;;;1999.90;999.90;;;;;;;;;;4909932;29;20244;-70
2023/03/27 06:54:48;;;;;;;1999.90;999.90;;;;;;;;;;4918602;29;20225;-71
2023/03/27 06:57:34;;;;;;;1999.90;999.90;;;;;;;;;;4909225;29;20343;-73
2023/03/27 07:00:22;;;;;;;1999.90;999.90;;;;;;;;;;4911818;29;20713;-72
2023/03/27 07:03:08;;;;;;;1999.90;999.90;;;;;;;;;;4913310;29;20276;-73
2023/03/27 07:05:54;;;;;;;1999.90;999.90;;;;;;;;;;4915729;29;20217;-74
2023/03/27 07:08:38;;;;;;;1999.90;999.90;;;;;;;;;;4919637;29;20319;-75
2023/03/27 07:11:24;;;;;;;1999.90;999.90;;;;;;;;;;4914856;29;20451;-74
2023/03/27 07:14:10;;;;;;;1999.90;999.90;;;;;;;;;;4917529;29;20226;-74
2023/03/27 07:16:55;;;;;;;1999.90;999.90;;;;;;;;;;4918059;29;20210;-74
2023/03/27 07:19:40;;;;;;;1999.90;999.90;;;;;;;;;;4920737;29;20293;-74
2023/03/27 07:22:25;;;;;;;1999.90;999.90;;;;;;;;;;4915571;29;20304;-76
2023/03/27 07:25:11;;;;;;;1999.90;999.90;;;;;;;;;;4922005;29;20447;-74
2023/03/27 07:27:57;;;;;;;1999.90;999.90;;;;;;;;;;4920523;29;20221;-74
2023/03/27 07:30:44;;;;;;;1999.90;999.90;;;;;;;;;;4917895;29;20324;-74
2023/03/27 07:33:29;;;;;;;1999.90;999.90;;;;;;;;;;4914571;29;20706;-74
2023/03/27 07:36:15;;;;;;;1999.90;999.90;;;;;;;;;;4914593;29;20603;-75
2023/03/27 07:39:00;;;;;;;1999.90;999.90;;;;;;;;;;4927626;29;20341;-75
2023/03/27 07:41:45;;;;;;;1999.90;999.90;;;;;;;;;;4914808;29;20229;-75
2023/03/27 07:44:29;;;;;;;1999.90;999.90;;;;;;;;;;4921031;29;20327;-75
2023/03/27 07:47:16;;;;;;;1999.90;999.90;;;;;;;;;;4920122;29;20707;-74
2023/03/27 07:50:02;;;;;;;1999.90;999.90;;;;;;;;;;4916105;29;20221;-74
2023/03/27 07:52:48;;;;;;;1999.90;999.90;;;;;;;;;;4917059;29;20318;-75
2023/03/27 07:55:36;;;;;;;1999.90;999.90;;;;;;;;;;4912653;29;20741;-75
2023/03/27 07:58:21;;;;;;;1999.90;999.90;;;;;;;;;;4916871;29;20210;-73
2023/03/27 08:01:06;;;;;;;1999.90;999.90;;;;;;;;;;4914397;29;20605;-74
2023/03/27 08:03:53;;;;;;;1999.90;999.90;;;;;;;;;;4925485;29;20217;-73
2023/03/27 08:06:38;;;;;;;1999.90;999.90;;;;;;;;;;4922806;29;21284;-74
2023/03/27 08:09:23;;;;;;;1999.90;999.90;;;;;;;;;;4915536;29;20975;-74
2023/03/27 08:12:08;;;;;;;1999.90;999.90;;;;;;;;;;4921384;29;20236;-73
2023/03/27 08:14:53;;;;;;;1999.90;999.90;;;;;;;;;;4916013;29;20205;-75
2023/03/27 08:17:38;;;;;;;1999.90;999.90;;;;;;;;;;4915738;29;20221;-75
2023/03/27 08:20:25;;;;;;;1999.90;999.90;;;;;;;;;;4913954;29;20231;-75
2023/03/27 08:23:10;;;;;;;1999.90;999.90;;;;;;;;;;4908308;29;20235;-75
2023/03/27 08:25:59;;;;;;;1999.90;999.90;;;;;;;;;;4922825;29;20286;-75
2023/03/27 08:28:44;;;;;;;1999.90;999.90;;;;;;;;;;4912640;29;20628;-75
2023/03/27 08:31:30;;;;;;;1999.90;999.90;;;;;;;;;;4916211;29;20261;-75
2023/03/27 08:34:16;;;;;;;1999.90;999.90;;;;;;;;;;4919971;29;20298;-74
2023/03/27 08:37:02;;;;;;;1999.90;999.90;;;;;;;;;;4914867;29;20257;-73
2023/03/27 08:39:47;;;;;;;1999.90;999.90;;;;;;;;;;4916427;29;20229;-70
2023/03/27 08:42:34;;;;;;;1999.90;999.90;;;;;;;;;;4906461;29;20225;-74
2023/03/27 08:45:20;;;;;;;1999.90;999.90;;;;;;;;;;4910051;29;20213;-74
2023/03/27 08:48:09;;;;;;;1999.90;999.90;;;;;;;;;;4916236;29;20301;-75
2023/03/27 08:50:55;;;;;;;1999.90;999.90;;;;;;;;;;4915684;29;20245;-74
2023/03/27 08:53:45;;;;;;;1999.90;999.90;;;;;;;;;;4914561;29;20489;-74
2023/03/27 08:56:30;;;;;;;1999.90;999.90;;;;;;;;;;4922676;29;20228;-74
2023/03/27 08:59:16;;;;;;;1999.90;999.90;;;;;;;;;;4923208;29;20230;-74
2023/03/27 09:02:03;;;;;;;1999.90;999.90;;;;;;;;;;4911915;29;20238;-74
2023/03/27 09:04:51;;;;;;;1999.90;999.90;;;;;;;;;;4914156;29;20230;-74
2023/03/27 09:07:39;;;;;;;1999.90;999.90;;;;;;;;;;4918162;29;20256;-74
2023/03/27 09:10:30;;;;;;;1999.90;999.90;;;;;;;;;;4912138;29;20343;-74
2023/03/27 09:13:16;;;;;;;1999.90;999.90;;;;;;;;;;4927748;29;20254;-74
2023/03/27 09:16:02;;;;;;;1999.90;999.90;;;;;;;;;;4914420;29;20305;-74
2023/03/27 09:18:50;;;;;;;1999.90;999.90;;;;;;;;;;4913621;29;20210;-71
2023/03/27 09:21:37;;;;;;;1999.90;999.90;;;;;;;;;;4910950;29;20264;-74
2023/03/27 09:24:26;;;;;;;1999.90;999.90;;;;;;;;;;4912346;29;20218;-73
2023/03/27 09:27:17;;;;;;;1999.90;999.90;;;;;;;;;;4923183;29;20223;-74
2023/03/27 09:30:16;;;;;;;1999.90;999.90;;;;;;;;;;4912911;29;20841;-74
2023/03/27 09:33:03;;;;;;;1999.90;999.90;;;;;;;;;;4923774;29;20251;-75
2023/03/27 09:35:48;;;;;;;1999.90;999.90;;;;;;;;;;4918052;29;20233;-74
2023/03/27 09:38:35;;;;;;;1999.90;999.90;;;;;;;;;;4912168;29;20420;-74
2023/03/27 09:41:22;;;;;;;1999.90;999.90;;;;;;;;;;4910569;29;20553;-75
2023/03/27 09:44:11;;;;;;;1999.90;999.90;;;;;;;;;;4922554;29;20223;-74
2023/03/27 09:46:58;;;;;;;1999.90;999.90;;;;;;;;;;4914431;29;20234;-73
2023/03/27 09:49:46;;;;;;;1999.90;999.90;;;;;;;;;;4907942;29;20218;-74
2023/03/27 09:52:36;;;;;;;1999.90;999.90;;;;;;;;;;4915151;29;20613;-75
2023/03/27 09:55:26;;;;;;;1999.90;999.90;;;;;;;;;;4916805;29;20587;-74
2023/03/27 09:58:14;;;;;;;1999.90;999.90;;;;;;;;;;4933963;29;20220;-74
2023/03/27 10:01:07;;;;;;;1999.90;999.90;;;;;;;;;;4918948;29;20229;-74
2023/03/27 10:03:53;;;;;;;1999.90;999.90;;;;;;;;;;4919373;29;20212;-74
2023/03/27 10:06:40;;;;;;;1999.90;999.90;;;;;;;;;;4917158;29;20650;-74
2023/03/27 10:09:26;;;;;;;1999.90;999.90;;;;;;;;;;4919322;29;20291;-75
2023/03/27 10:12:17;;;;;;;1999.90;999.90;;;;;;;;;;4918924;29;20229;-75
2023/03/27 10:15:04;;;;;;;1999.90;999.90;;;;;;;;;;4918915;29;20220;-74
2023/03/27 10:17:50;;;;;;;1999.90;999.90;;;;;;;;;;4918852;29;20216;-76
2023/03/27 10:20:35;;;;;;;1999.90;999.90;;;;;;;;;;4919120;29;20232;-76
2023/03/27 10:23:23;;;;;;;1999.90;999.90;;;;;;;;;;4912759;29;20706;-74
2023/03/27 10:26:10;;;;;;;1999.90;999.90;;;;;;;;;;4925909;29;20214;-75
2023/03/27 10:29:00;;;;;;;1999.90;999.90;;;;;;;;;;4921159;29;20220;-74
2023/03/27 10:31:48;;;;;;;1999.90;999.90;;;;;;;;;;4922441;29;20353;-75
2023/03/27 10:34:36;;;;;;;1999.90;999.90;;;;;;;;;;4919522;29;20297;-76
2023/03/27 10:37:26;;;;;;;1999.90;999.90;;;;;;;;;;4926096;29;20222;-76
2023/03/27 10:40:16;;;;;;;1999.90;999.90;;;;;;;;;;4925137;29;20340;-76
2023/03/27 10:43:02;;;;;;;1999.90;999.90;;;;;;;;;;4917513;29;20211;-76
2023/03/27 10:45:49;;;;;;;1999.90;999.90;;;;;;;;;;4920903;29;20295;-75
2023/03/27 10:48:39;;;;;;;1999.90;999.90;;;;;;;;;;4913001;29;20592;-75
2023/03/27 10:51:32;;;;;;;1999.90;999.90;;;;;;;;;;4911344;29;20370;-75
2023/03/27 10:54:20;;;;;;;1999.90;999.90;;;;;;;;;;4920203;29;20232;-75
2023/03/27 10:57:09;;;;;;;1999.90;999.90;;;;;;;;;;4914564;29;20229;-75
2023/03/27 10:59:56;;;;;;;1999.90;999.90;;;;;;;;;;4901846;29;20220;-76
2023/03/27 11:02:46;;;;;;;1999.90;999.90;;;;;;;;;;4913386;29;20267;-75
2023/03/27 11:05:33;;;;;;;1999.90;999.90;;;;;;;;;;4917161;29;20211;-76
2023/03/27 11:08:22;;;;;;;1999.90;999.90;;;;;;;;;;4917901;29;20208;-75
2023/03/27 11:11:12;;;;;;;1999.90;999.90;;;;;;;;;;4913821;29;20249;-76
2023/03/27 11:14:01;;;;;;;1999.90;999.90;;;;;;;;;;4915056;29;20234;-74
2023/03/27 11:16:48;;;;;;;1999.90;999.90;;;;;;;;;;4917561;29;20277;-75
2023/03/27 11:19:38;;;;;;;1999.90;999.90;;;;;;;;;;4917544;29;20217;-75
2023/03/27 11:22:25;;;;;;;1999.90;999.90;;;;;;;;;;4917325;29;20241;-75
2023/03/27 11:25:17;;;;;;;1999.90;999.90;;;;;;;;;;4919747;29;20224;-75
2023/03/27 11:28:07;;;;;;;1999.90;999.90;;;;;;;;;;4913868;29;20201;-76
2023/03/27 11:30:54;;;;;;;1999.90;999.90;;;;;;;;;;4915725;29;20241;-75
2023/03/27 11:33:42;;;;;;;1999.90;999.90;;;;;;;;;;4912436;29;20339;-76
2023/03/27 11:36:36;;;;;;;1999.90;999.90;;;;;;;;;;4917309;29;20225;-76
2023/03/27 11:39:25;;;;;;;1999.90;999.90;;;;;;;;;;4917446;29;20618;-76
2023/03/27 11:42:14;;;;;;;1999.90;999.90;;;;;;;;;;4917007;29;20241;-75
2023/03/27 11:45:03;;;;;;;1999.90;999.90;;;;;;;;;;4916943;29;20219;-75
2023/03/27 11:47:53;;;;;;;1999.90;999.90;;;;;;;;;;4922976;29;20416;-75
2023/03/27 11:50:43;;;;;;;1999.90;999.90;;;;;;;;;;4911509;29;20468;-75
2023/03/27 11:53:39;;;;;;;1999.90;999.90;;;;;;;;;;4916931;29;20226;-76
2023/03/27 11:56:30;;;;;;;1999.90;999.90;;;;;;;;;;4917035;29;20225;-75
2023/03/27 11:59:24;;;;;;;1999.90;999.90;;;;;;;;;;4916808;29;20225;-75
2023/03/27 12:02:19;;;;;;;1999.90;999.90;;;;;;;;;;4916651;29;20240;-75
2023/03/27 12:05:09;;;;;;;1999.90;999.90;;;;;;;;;;4916018;29;20222;-75
2023/03/27 12:07:58;;;;;;;1999.90;999.90;;;;;;;;;;4914610;29;20217;-75
2023/03/27 12:10:44;;;;;;;1999.90;999.90;;;;;;;;;;4924706;29;20930;-75
2023/03/27 12:13:47;;;;;;;1999.90;999.90;;;;;;;;;;4921917;29;20220;-75
2023/03/27 12:16:47;;;;;;;1999.90;999.90;;;;;;;;;;4895512;29;20292;-76
2023/03/27 12:19:44;;;;;;;1999.90;999.90;;;;;;;;;;4918288;29;20704;-75
2023/03/27 12:22:32;;;;;;;1999.90;999.90;;;;;;;;;;4910653;29;20248;-75
2023/03/27 12:25:32;;;;;;;1999.90;999.90;;;;;;;;;;4899480;29;20523;-74
2023/03/27 12:28:23;;;;;;;1999.90;999.90;;;;;;;;;;4919141;29;20210;-75
2023/03/27 12:31:18;;;;;;;1999.90;999.90;;;;;;;;;;4917157;29;20811;-75
2023/03/27 12:34:04;;;;;;;1999.90;999.90;;;;;;;;;;4913734;29;20211;-76
2023/03/27 12:36:51;;;;;;;1999.90;999.90;;;;;;;;;;4915263;29;20304;-75
2023/03/27 12:39:44;;;;;;;1999.90;999.90;;;;;;;;;;4909341;29;20220;-76
2023/03/27 12:42:43;;;;;;;1999.90;999.90;;;;;;;;;;4901524;29;20616;-74
2023/03/27 12:45:29;;;;;;;1999.90;999.90;;;;;;;;;;4908728;29;20232;-74
2023/03/27 12:48:19;;;;;;;1999.90;999.90;;;;;;;;;;4914845;29;20717;-75
2023/03/27 12:51:11;;;;;;;1999.90;999.90;;;;;;;;;;4906611;29;20434;-75
2023/03/27 12:53:58;;;;;;;1999.90;999.90;;;;;;;;;;4915141;29;20648;-75
2023/03/27 12:56:43;;;;;;;1999.90;999.90;;;;;;;;;;4915045;29;20240;-75
2023/03/27 12:59:29;;;;;;;1999.90;999.90;;;;;;;;;;4902006;29;20204;-75
2023/03/27 13:02:41;;;;;;;1999.90;999.90;;;;;;;;;;4914661;29;20251;-75
2023/03/27 13:05:35;;;;;;;1999.90;999.90;;;;;;;;;;4907580;29;20423;-75
2023/03/27 13:08:44;;;;;;;1999.90;999.90;;;;;;;;;;4915100;29;20211;-75
2023/03/27 13:11:37;;;;;;;1999.90;999.90;;;;;;;;;;4900821;29;20316;-75
2023/03/27 13:14:31;;;;;;;1999.90;999.90;;;;;;;;;;4911881;29;20261;-76
2023/03/27 13:17:34;;;;;;;1999.90;999.90;;;;;;;;;;4915338;29;20773;-76
2023/03/27 13:20:27;;;;;;;1999.90;999.90;;;;;;;;;;4914082;29;20277;-75
2023/03/27 13:23:18;;;;;;;1999.90;999.90;;;;;;;;;;4913111;29;20213;-76
2023/03/27 13:26:09;;;;;;;1999.90;999.90;;;;;;;;;;4914684;29;20219;-75
2023/03/27 13:28:56;;;;;;;1999.90;999.90;;;;;;;;;;4907904;29;20224;-75
2023/03/27 13:32:01;;;;;;;1999.90;999.90;;;;;;;;;;4909157;29;21252;-76
2023/03/27 13:35:00;;;;;;;1999.90;999.90;;;;;;;;;;4909602;29;20779;-75
2023/03/27 13:37:57;;;;;;;1999.90;999.90;;;;;;;;;;4905642;29;20222;-75
2023/03/27 13:40:44;;;;;;;1999.90;999.90;;;;;;;;;;4906105;29;20254;-76
2023/03/27 13:43:32;;;;;;;1999.90;999.90;;;;;;;;;;4908512;29;20219;-75
2023/03/27 13:46:23;;;;;;;1999.90;999.90;;;;;;;;;;4913365;29;20238;-73
2023/03/27 13:49:14;;;;;;;1999.90;999.90;;;;;;;;;;4912089;29;20455;-75
2023/03/27 13:52:14;;;;;;;1999.90;999.90;;;;;;;;;;4926415;29;20300;-75
2023/03/27 13:55:15;;;;;;;1999.90;999.90;;;;;;;;;;4916052;29;20720;-76
2023/03/27 13:58:11;;;;;;;1999.90;999.90;;;;;;;;;;4915129;29;20233;-75
2023/03/27 14:01:08;;;;;;;1999.90;999.90;;;;;;;;;;4916688;29;20236;-76
2023/03/27 14:04:18;;;;;;;1999.90;999.90;;;;;;;;;;4921788;29;20203;-77
2023/03/27 14:07:18;;;;;;;1999.90;999.90;;;;;;;;;;4900337;29;20200;-76
2023/03/27 14:10:16;;;;;;;1999.90;999.90;;;;;;;;;;4906767;29;20218;-75
2023/03/27 14:13:07;;;;;;;1999.90;999.90;;;;;;;;;;4914376;29;20211;-76
2023/03/27 14:16:18;;;;;;;1999.90;999.90;;;;;;;;;;4925101;29;20328;-75
2023/03/27 14:19:22;;;;;;;1999.90;999.90;;;;;;;;;;4912048;29;20219;-75
2023/03/27 14:22:13;;;;;;;1999.90;999.90;;;;;;;;;;4904037;29;20245;-75
2023/03/27 14:24:59;;;;;;;1999.90;999.90;;;;;;;;;;4916739;29;20607;-77
2023/03/27 14:27:48;;;;;;;1999.90;999.90;;;;;;;;;;4910321;29;20220;-77
2023/03/27 14:30:41;;;;;;;1999.90;999.90;;;;;;;;;;4896242;29;20340;-76
2023/03/27 14:33:27;;;;;;;1999.90;999.90;;;;;;;;;;4924396;29;20415;-76
2023/03/27 14:36:15;;;;;;;1999.90;999.90;;;;;;;;;;4929622;29;20287;-75
2023/03/27 14:39:07;;;;;;;1999.90;999.90;;;;;;;;;;4921951;29;20266;-75
2023/03/27 14:41:53;;;;;;;1999.90;999.90;;;;;;;;;;4912325;29;20389;-76
2023/03/27 14:44:38;;;;;;;1999.90;999.90;;;;;;;;;;4922857;29;20211;-75
2023/03/27 14:47:22;;;;;;;1999.90;999.90;;;;;;;;;;4921756;29;20629;-76
2023/03/27 14:50:12;;;;;;;1999.90;999.90;;;;;;;;;;4926205;29;20214;-75
2023/03/27 14:52:58;;;;;;;1999.90;999.90;;;;;;;;;;4916390;29;20719;-74
2023/03/27 14:55:46;;;;;;;1999.90;999.90;;;;;;;;;;4916588;29;20689;-76
2023/03/27 14:58:30;;;;;;;1999.90;999.90;;;;;;;;;;4923344;29;20227;-77
2023/03/27 15:01:16;;;;;;;1999.90;999.90;;;;;;;;;;4919661;29;20770;-75
2023/03/27 15:04:02;;;;;;;1999.90;999.90;;;;;;;;;;4915740;29;20351;-77
2023/03/27 15:06:48;;;;;;;1999.90;999.90;;;;;;;;;;4902677;29;20287;-76
2023/03/27 15:09:36;;;;;;;1999.90;999.90;;;;;;;;;;4912392;29;20220;-76
2023/03/27 15:12:24;;;;;;;1999.90;999.90;;;;;;;;;;4923907;29;20260;-77
2023/03/27 15:15:16;;;;;;;1999.90;999.90;;;;;;;;;;4922906;29;20405;-75
2023/03/27 15:18:04;;;;;;;1999.90;999.90;;;;;;;;;;4923977;29;20793;-75
2023/03/27 15:20:50;;;;;;;1999.90;999.90;;;;;;;;;;4919917;29;20361;-75
2023/03/27 15:23:38;;;;;;;1999.90;999.90;;;;;;;;;;4922576;29;20296;-76
2023/03/27 15:26:25;;;;;;;1999.90;999.90;;;;;;;;;;4923270;29;20237;-77
2023/03/27 15:29:13;;;;;;;1999.90;999.90;;;;;;;;;;4923757;29;20334;-73
2023/03/27 15:32:00;;;;;;;1999.90;999.90;;;;;;;;;;4914698;29;20304;-74
2023/03/27 15:34:47;;;;;;;1999.90;999.90;;;;;;;;;;4911151;29;20220;-74
2023/03/27 15:37:33;;;;;;;1999.90;999.90;;;;;;;;;;4912679;29;20308;-73
2023/03/27 15:40:37;;;;;;;1999.90;999.90;;;;;;;;;;4916888;29;20292;-74